Nearby METAR Reports

Actuele Vliegveldwaarnemingen NL (METAR).Zie KNMI uitleg METAR hier

EHAM - Amsterdam/Schiph, Netherlands
Distance from station: ONO 18km
Updated: 19/09/2019 06:25
Meestal bewolkt
Meestal bewolkt
 Wind van NW
Wind: NW 6 km/h
Temperatuur: 11°C
Dauwpunt: 9°C
Vochtigheid: 88%
Barometer: 1029 hPa
Clouds: Meestal bewolkt
Visibility: 10 km
Cloud details: Few Clouds 1036 m
Meestal bewolkt 1158 m
2019/09/19 04:25 EHAM 190425Z 32003KT 9999 FEW034 BKN038 11/09 Q1029 NOSIG
EHKD - DE KOOY/DE KOOY
Updated: 19/09/2019 06:28
Neerslag, Meestal bewolkt
Neerslag, Meestal bewolkt
 Wind van NNW
Wind: NNW 11 km/h
Temperatuur: 12°C
Dauwpunt: 10°C
Vochtigheid: 88%
Barometer: 1029 hPa
Overzicht: Neerslag
Clouds: Meestal bewolkt
Visibility: 5 km
Cloud details: Few Clouds 213 m
Meestal bewolkt 518 m
Meestal bewolkt 640 m
2019/09/19 04:28 EHKD 190428Z AUTO 34006KT 290V030 4800 RA FEW007 BKN017 BKN021 12/10 Q1029 GRN 35005KT 9999 FEW014 SCT018 BKN025
 
EHLW - LEEUWARDEN/LEEUWARDEN
Updated: 19/09/2019 06:25
Zwaar bewolkt
Zwaar bewolkt
 Wind van ZW
Wind: ZW 2 km/h
Temperatuur: 6°C
Dauwpunt: 6°C
Vochtigheid: 100%
Barometer: 1029 hPa
Clouds: Zwaar bewolkt
Visibility: 10 km
Cloud details: Few Clouds 1036 m
Gedeeltelijk bewolkt 1219 m
Zwaar bewolkt 11278 m
2019/09/19 04:25 EHLW 190425Z AUTO 22001KT 9999 FEW034 SCT040 OVC370 06/06 Q1029 BLU
EHVK - VOLKEL/VOLKEL
Updated: 19/09/2019 06:25
Zwaar bewolkt
Zwaar bewolkt
 Wind van NW
Wind: NW 2 km/h
Temperatuur: 9°C
Dauwpunt: 8°C
Vochtigheid: 94%
Barometer: 1029 hPa
Clouds: Zwaar bewolkt
Visibility: 10 km
Cloud details: Gedeeltelijk bewolkt 1219 m
Zwaar bewolkt 1372 m
2019/09/19 04:25 EHVK 190425Z AUTO 32001KT 9999 SCT040 OVC045 09/08 Q1029 BLU
 
EHFS - VLISSINGEN
Updated: 19/09/2019 06:25
Zwaar bewolkt
Zwaar bewolkt
 Wind van NO
Wind: NO 6 km/h
Temperatuur: 13°C
Dauwpunt: 10°C
Vochtigheid: 82%
Barometer: 1029 hPa
Clouds: Zwaar bewolkt
Visibility: 10 km
Cloud details: Few Clouds 1097 m
Zwaar bewolkt 1494 m
2019/09/19 04:25 EHFS 190425Z AUTO 04003KT 9999 FEW036/// OVC049/// 13/10 Q1029 W///H///
EHEH - EINDHOVEN/EINDHOVEN
Updated: 19/09/2019 06:25
Zwaar bewolkt
Zwaar bewolkt
 Wind van NW
Wind: NW 2 km/h
Temperatuur: 8°C
Dauwpunt: 7°C
Vochtigheid: 93%
Barometer: 1029 hPa
Clouds: Zwaar bewolkt
Visibility: 10 km
Cloud details: Gedeeltelijk bewolkt 1158 m
Zwaar bewolkt 1341 m
2019/09/19 04:25 EHEH 190425Z AUTO 32001KT 9999 SCT038 OVC044 08/07 Q1029 BLU
 
EHGR - GILZE-RIJEN/GILZE-RIJEN
Updated: 19/09/2019 06:25
Zwaar bewolkt
Zwaar bewolkt
 Wind van WNW
Wind: WNW 4 km/h
Temperatuur: 7°C
Dauwpunt: 6°C
Vochtigheid: 93%
Barometer: 1029 hPa
Clouds: Zwaar bewolkt
Visibility: 10 km
Cloud details: Few Clouds 1341 m
Zwaar bewolkt 1494 m
2019/09/19 04:25 EHGR 190425Z AUTO 30002KT 9999 FEW044 OVC049 07/06 Q1029 BLU
EHDL - ARNHEM/DEELEN
Updated: 19/09/2019 06:25
Zwaar bewolkt
Zwaar bewolkt
 Wind van WNW
Wind: WNW 2 km/h
Temperatuur: 8°C
Dauwpunt: 7°C
Vochtigheid: 93%
Barometer: 1029 hPa
Clouds: Zwaar bewolkt
Visibility: 10 km
Cloud details: Zwaar bewolkt 1006 m
2019/09/19 04:25 EHDL 190425Z AUTO 30001KT 9999 OVC033 08/07 Q1029 BLU
 
EHBK - MAASTRICHT/MAASTRICHT-AACHEN
Updated: 19/09/2019 06:40
unable to load EHBK data RC=
unable to load EHBK data RC=